マドリード/バラハス の空港の天気 - METARとTAF

マドリード・バラハス国際空港 ( LEMD / MAD ) - スペイン マドリード
飛行場実況気象(Metar)
観測時間01/19 12:11 CET (01/19 11:11 UTC)
風向・風速南 1m/s
視程6000m
天気現象
少しの雲 雲底高度 210m
全天の8割程度の雲 雲底高度 370m
気温1℃
湿度93%
気圧1017hPa
METARLEMD 191111Z 18002KT 6000 FEW007 BKN012 01/M00 Q1017 BECMG 4500 DZRA BKN005
過去の天気等 Google飛行場航空写真 Wunderground天気予報

過去48時間のMETAR

飛行場予報(TAF)
発表時間: 1/19 06:00 CET (1/19 05:00 UTC)
予報対象時間: 19日7時 CET ~ 20日13時 CET
風向・風速不定 3m/s
視程10km以上
少しの雲 雲底高度 1520m
19日7時 CET ~ 19日11時 CET に 確率 40% で一時的に
視程3000m
天気現象もや
19日7時 CET ~ 19日11時 CET に 確率 30% で一時的に
視程600m
天気現象
全天の8割程度の雲 雲底高度 30m
19日10時 CET ~ 20日1時 CET に一時的に
視程3000m
天気現象雨 もや
全天の8割程度の雲 雲底高度 430m
20日1時 CET ~ 20日7時 CET に 確率 30% で一時的に
視程3000m
天気現象
全天の8割程度の雲 雲底高度 430m
20日10時 CET ~ 20日12時 CET に徐々に
風向・風速北 6m/s
TAF LEMD 190500Z 1906/2012 VRB05KT 9999 FEW050 TX06/1915Z TNM04/1907Z
PROB40 TEMPO 1906/1910 3000 BR
PROB30 TEMPO 1906/1910 0600 FG BKN001
TEMPO 1909/1924 3000 RA BR BKN014
PROB30 TEMPO 2000/2006 3000 RA BKN014
BECMG 2009/2011 01012KT